sensor_id;sensor_type;location;lat;lon;timestamp;temperature;humidity
6666;DHT22;3369;49.906;8.598;2022-12-18T00:02:13;-7.70;99.90
6666;DHT22;3369;49.906;8.598;2022-12-18T00:04:39;-7.80;99.90
6666;DHT22;3369;49.906;8.598;2022-12-18T00:07:04;-7.80;99.90
6666;DHT22;3369;49.906;8.598;2022-12-18T00:09:30;-7.80;99.90
6666;DHT22;3369;49.906;8.598;2022-12-18T00:11:55;-7.90;99.90
6666;DHT22;3369;49.906;8.598;2022-12-18T00:14:21;-7.90;99.90
6666;DHT22;3369;49.906;8.598;2022-12-18T00:16:47;-7.90;99.90
6666;DHT22;3369;49.906;8.598;2022-12-18T00:19:14;-7.90;99.90
6666;DHT22;3369;49.906;8.598;2022-12-18T00:21:40;-8.00;99.90
6666;DHT22;3369;49.906;8.598;2022-12-18T00:24:06;-8.00;99.90
6666;DHT22;3369;49.906;8.598;2022-12-18T00:26:33;-8.00;99.90
6666;DHT22;3369;49.906;8.598;2022-12-18T00:29:02;-8.10;99.90
6666;DHT22;3369;49.906;8.598;2022-12-18T00:31:28;-8.10;99.90
6666;DHT22;3369;49.906;8.598;2022-12-18T00:33:55;-8.10;99.90
6666;DHT22;3369;49.906;8.598;2022-12-18T00:36:24;-8.10;99.90
6666;DHT22;3369;49.906;8.598;2022-12-18T00:38:51;-8.10;99.90
6666;DHT22;3369;49.906;8.598;2022-12-18T00:41:17;-8.10;99.90
6666;DHT22;3369;49.906;8.598;2022-12-18T00:44:04;-8.10;99.90
6666;DHT22;3369;49.906;8.598;2022-12-18T00:46:30;-8.20;99.90
6666;DHT22;3369;49.906;8.598;2022-12-18T00:48:56;-8.20;99.90
6666;DHT22;3369;49.906;8.598;2022-12-18T00:51:22;-8.20;99.90
6666;DHT22;3369;49.906;8.598;2022-12-18T00:53:48;-8.20;99.90
6666;DHT22;3369;49.906;8.598;2022-12-18T00:56:14;-8.30;99.90
6666;DHT22;3369;49.906;8.598;2022-12-18T00:58:39;-8.30;99.90
6666;DHT22;3369;49.906;8.598;2022-12-18T01:01:06;-8.30;99.90
6666;DHT22;3369;49.906;8.598;2022-12-18T01:03:32;-8.40;99.90
6666;DHT22;3369;49.906;8.598;2022-12-18T01:05:58;-8.40;99.90
6666;DHT22;3369;49.906;8.598;2022-12-18T01:08:23;-8.40;99.90
6666;DHT22;3369;49.906;8.598;2022-12-18T01:10:49;-8.40;99.90
6666;DHT22;3369;49.906;8.598;2022-12-18T01:13:15;-8.50;99.90
6666;DHT22;3369;49.906;8.598;2022-12-18T01:15:40;-8.50;99.90
6666;DHT22;3369;49.906;8.598;2022-12-18T01:18:12;-8.60;99.90
6666;DHT22;3369;49.906;8.598;2022-12-18T01:20:38;-8.70;99.90
6666;DHT22;3369;49.906;8.598;2022-12-18T01:23:03;-8.80;99.90
6666;DHT22;3369;49.906;8.598;2022-12-18T01:25:29;-8.90;99.90
6666;DHT22;3369;49.906;8.598;2022-12-18T01:27:55;-8.90;99.90
6666;DHT22;3369;49.906;8.598;2022-12-18T01:30:20;-8.90;99.90
6666;DHT22;3369;49.906;8.598;2022-12-18T01:32:46;-8.90;99.90
6666;DHT22;3369;49.906;8.598;2022-12-18T01:35:11;-9.00;99.90
6666;DHT22;3369;49.906;8.598;2022-12-18T01:37:37;-9.00;99.90
6666;DHT22;3369;49.906;8.598;2022-12-18T01:40:03;-9.00;99.90
6666;DHT22;3369;49.906;8.598;2022-12-18T01:42:29;-9.00;99.90
6666;DHT22;3369;49.906;8.598;2022-12-18T01:45:01;-9.00;99.90
6666;DHT22;3369;49.906;8.598;2022-12-18T01:47:43;-8.90;99.90
6666;DHT22;3369;49.906;8.598;2022-12-18T01:50:28;-8.90;99.90
6666;DHT22;3369;49.906;8.598;2022-12-18T01:52:59;-8.90;99.90
6666;DHT22;3369;49.906;8.598;2022-12-18T01:55:28;-8.90;99.90
6666;DHT22;3369;49.906;8.598;2022-12-18T01:57:57;-8.90;99.90
6666;DHT22;3369;49.906;8.598;2022-12-18T02:00:25;-8.90;99.90
6666;DHT22;3369;49.906;8.598;2022-12-18T02:02:52;-8.80;99.90
6666;DHT22;3369;49.906;8.598;2022-12-18T02:05:35;-8.80;99.90
6666;DHT22;3369;49.906;8.598;2022-12-18T02:08:19;-8.80;99.90
6666;DHT22;3369;49.906;8.598;2022-12-18T02:16:57;-8.80;99.90
6666;DHT22;3369;49.906;8.598;2022-12-18T02:39:32;-9.00;99.90
6666;DHT22;3369;49.906;8.598;2022-12-18T02:41:59;-9.00;99.90
6666;DHT22;3369;49.906;8.598;2022-12-18T02:44:27;-9.00;99.90
6666;DHT22;3369;49.906;8.598;2022-12-18T02:46:53;-9.00;99.90
6666;DHT22;3369;49.906;8.598;2022-12-18T02:49:40;-9.00;99.90
6666;DHT22;3369;49.906;8.598;2022-12-18T02:52:29;-9.00;99.90
6666;DHT22;3369;49.906;8.598;2022-12-18T02:58:04;-9.00;99.90
6666;DHT22;3369;49.906;8.598;2022-12-18T03:05:51;-9.00;99.90
6666;DHT22;3369;49.906;8.598;2022-12-18T03:08:24;-9.00;99.90
6666;DHT22;3369;49.906;8.598;2022-12-18T03:11:00;-8.90;99.90
6666;DHT22;3369;49.906;8.598;2022-12-18T03:16:12;-8.90;99.90
6666;DHT22;3369;49.906;8.598;2022-12-18T03:19:03;-8.80;99.90
6666;DHT22;3369;49.906;8.598;2022-12-18T03:21:35;-8.80;99.90
6666;DHT22;3369;49.906;8.598;2022-12-18T03:24:06;-8.80;99.90
6666;DHT22;3369;49.906;8.598;2022-12-18T03:26:35;-8.70;99.90
6666;DHT22;3369;49.906;8.598;2022-12-18T03:29:07;-8.70;99.90
6666;DHT22;3369;49.906;8.598;2022-12-18T03:31:34;-8.60;99.90
6666;DHT22;3369;49.906;8.598;2022-12-18T03:34:03;-8.60;99.90
6666;DHT22;3369;49.906;8.598;2022-12-18T03:36:30;-8.60;99.90
6666;DHT22;3369;49.906;8.598;2022-12-18T03:38:56;-8.50;99.90
6666;DHT22;3369;49.906;8.598;2022-12-18T03:52:46;-8.60;99.90
6666;DHT22;3369;49.906;8.598;2022-12-18T03:55:15;-8.60;99.90
6666;DHT22;3369;49.906;8.598;2022-12-18T03:57:42;-8.70;99.90
6666;DHT22;3369;49.906;8.598;2022-12-18T04:00:14;-8.60;99.90
6666;DHT22;3369;49.906;8.598;2022-12-18T04:02:48;-8.60;99.90
6666;DHT22;3369;49.906;8.598;2022-12-18T04:05:15;-8.50;99.90
6666;DHT22;3369;49.906;8.598;2022-12-18T04:07:43;-8.50;99.90
6666;DHT22;3369;49.906;8.598;2022-12-18T04:10:10;-8.50;99.90
6666;DHT22;3369;49.906;8.598;2022-12-18T04:12:37;-8.50;99.90
6666;DHT22;3369;49.906;8.598;2022-12-18T04:15:03;-8.50;99.90
6666;DHT22;3369;49.906;8.598;2022-12-18T04:17:29;-8.40;99.90
6666;DHT22;3369;49.906;8.598;2022-12-18T04:19:54;-8.40;99.90
6666;DHT22;3369;49.906;8.598;2022-12-18T04:22:20;-8.50;99.90
6666;DHT22;3369;49.906;8.598;2022-12-18T04:24:46;-8.40;99.90
6666;DHT22;3369;49.906;8.598;2022-12-18T04:27:11;-8.40;99.90
6666;DHT22;3369;49.906;8.598;2022-12-18T04:29:37;-8.40;99.90
6666;DHT22;3369;49.906;8.598;2022-12-18T04:32:03;-8.40;99.90
6666;DHT22;3369;49.906;8.598;2022-12-18T04:34:29;-8.30;99.90
6666;DHT22;3369;49.906;8.598;2022-12-18T04:36:54;-8.30;99.90
6666;DHT22;3369;49.906;8.598;2022-12-18T04:39:20;-8.30;99.90
6666;DHT22;3369;49.906;8.598;2022-12-18T04:41:46;-8.20;99.90
6666;DHT22;3369;49.906;8.598;2022-12-18T04:44:11;-8.20;99.90
6666;DHT22;3369;49.906;8.598;2022-12-18T04:46:37;-8.20;99.90
6666;DHT22;3369;49.906;8.598;2022-12-18T04:49:02;-8.20;99.90
6666;DHT22;3369;49.906;8.598;2022-12-18T04:51:28;-8.20;99.90
6666;DHT22;3369;49.906;8.598;2022-12-18T04:53:53;-8.20;99.90
6666;DHT22;3369;49.906;8.598;2022-12-18T04:56:19;-8.10;99.90
6666;DHT22;3369;49.906;8.598;2022-12-18T04:58:45;-8.10;99.90
6666;DHT22;3369;49.906;8.598;2022-12-18T05:01:12;-8.10;99.90
6666;DHT22;3369;49.906;8.598;2022-12-18T05:03:38;-8.10;99.90
6666;DHT22;3369;49.906;8.598;2022-12-18T05:06:05;-8.00;99.90
6666;DHT22;3369;49.906;8.598;2022-12-18T05:08:31;-8.00;99.90
6666;DHT22;3369;49.906;8.598;2022-12-18T05:11:01;-8.00;99.90
6666;DHT22;3369;49.906;8.598;2022-12-18T05:13:27;-8.10;99.90
6666;DHT22;3369;49.906;8.598;2022-12-18T05:15:54;-8.10;99.90
6666;DHT22;3369;49.906;8.598;2022-12-18T05:18:20;-8.10;99.90
6666;DHT22;3369;49.906;8.598;2022-12-18T05:20:46;-8.20;99.90
6666;DHT22;3369;49.906;8.598;2022-12-18T05:23:11;-8.20;99.90
6666;DHT22;3369;49.906;8.598;2022-12-18T05:25:37;-8.20;99.90
6666;DHT22;3369;49.906;8.598;2022-12-18T05:28:03;-8.30;99.90
6666;DHT22;3369;49.906;8.598;2022-12-18T05:30:28;-8.20;99.90
6666;DHT22;3369;49.906;8.598;2022-12-18T05:32:54;-8.20;99.90
6666;DHT22;3369;49.906;8.598;2022-12-18T05:35:19;-8.30;99.90
6666;DHT22;3369;49.906;8.598;2022-12-18T05:37:45;-8.20;99.90
6666;DHT22;3369;49.906;8.598;2022-12-18T05:40:11;-8.30;99.90
6666;DHT22;3369;49.906;8.598;2022-12-18T05:42:37;-8.30;99.90
6666;DHT22;3369;49.906;8.598;2022-12-18T05:45:04;-8.30;99.90
6666;DHT22;3369;49.906;8.598;2022-12-18T05:47:30;-8.30;99.90
6666;DHT22;3369;49.906;8.598;2022-12-18T05:49:56;-8.30;99.90
6666;DHT22;3369;49.906;8.598;2022-12-18T05:52:22;-8.30;99.90
6666;DHT22;3369;49.906;8.598;2022-12-18T05:54:47;-8.30;99.90
6666;DHT22;3369;49.906;8.598;2022-12-18T05:57:13;-8.30;99.90
6666;DHT22;3369;49.906;8.598;2022-12-18T05:59:39;-8.30;99.90
6666;DHT22;3369;49.906;8.598;2022-12-18T06:02:04;-8.30;99.90
6666;DHT22;3369;49.906;8.598;2022-12-18T06:04:30;-8.20;99.90
6666;DHT22;3369;49.906;8.598;2022-12-18T06:06:56;-8.20;99.90
6666;DHT22;3369;49.906;8.598;2022-12-18T06:09:21;-8.20;99.90
6666;DHT22;3369;49.906;8.598;2022-12-18T06:11:47;-8.30;99.90
6666;DHT22;3369;49.906;8.598;2022-12-18T06:14:12;-8.30;99.90
6666;DHT22;3369;49.906;8.598;2022-12-18T06:16:38;-8.30;99.90
6666;DHT22;3369;49.906;8.598;2022-12-18T06:19:05;-8.40;99.90
6666;DHT22;3369;49.906;8.598;2022-12-18T06:21:32;-8.40;99.90
6666;DHT22;3369;49.906;8.598;2022-12-18T06:23:57;-8.40;99.90
6666;DHT22;3369;49.906;8.598;2022-12-18T06:26:23;-8.50;99.90
6666;DHT22;3369;49.906;8.598;2022-12-18T06:28:49;-8.50;99.90
6666;DHT22;3369;49.906;8.598;2022-12-18T06:31:15;-8.50;99.90
6666;DHT22;3369;49.906;8.598;2022-12-18T06:33:40;-8.50;99.90
6666;DHT22;3369;49.906;8.598;2022-12-18T06:36:09;-8.50;99.90
6666;DHT22;3369;49.906;8.598;2022-12-18T06:38:37;-8.60;99.90
6666;DHT22;3369;49.906;8.598;2022-12-18T06:41:18;-8.60;99.90
6666;DHT22;3369;49.906;8.598;2022-12-18T06:43:44;-8.70;99.90
6666;DHT22;3369;49.906;8.598;2022-12-18T06:46:10;-8.70;99.90
6666;DHT22;3369;49.906;8.598;2022-12-18T06:48:36;-8.70;99.90
6666;DHT22;3369;49.906;8.598;2022-12-18T06:51:02;-8.70;99.90
6666;DHT22;3369;49.906;8.598;2022-12-18T06:53:28;-8.70;99.90
6666;DHT22;3369;49.906;8.598;2022-12-18T06:56:03;-8.70;99.90
6666;DHT22;3369;49.906;8.598;2022-12-18T06:58:29;-8.80;99.90
6666;DHT22;3369;49.906;8.598;2022-12-18T07:01:00;-8.80;99.90
6666;DHT22;3369;49.906;8.598;2022-12-18T07:03:26;-8.80;99.90
6666;DHT22;3369;49.906;8.598;2022-12-18T07:05:52;-8.80;99.90
6666;DHT22;3369;49.906;8.598;2022-12-18T07:08:17;-8.80;99.90
6666;DHT22;3369;49.906;8.598;2022-12-18T07:10:43;-8.90;99.90
6666;DHT22;3369;49.906;8.598;2022-12-18T07:13:09;-9.00;99.90
6666;DHT22;3369;49.906;8.598;2022-12-18T07:15:35;-9.10;99.90
6666;DHT22;3369;49.906;8.598;2022-12-18T07:18:01;-9.10;99.90
6666;DHT22;3369;49.906;8.598;2022-12-18T07:20:26;-9.20;99.90
6666;DHT22;3369;49.906;8.598;2022-12-18T07:22:52;-9.20;99.90
6666;DHT22;3369;49.906;8.598;2022-12-18T07:25:17;-9.30;99.90
6666;DHT22;3369;49.906;8.598;2022-12-18T07:27:43;-9.30;99.90
6666;DHT22;3369;49.906;8.598;2022-12-18T07:30:09;-9.40;99.90
6666;DHT22;3369;49.906;8.598;2022-12-18T07:32:35;-9.40;99.90
6666;DHT22;3369;49.906;8.598;2022-12-18T07:35:00;-9.50;99.90
6666;DHT22;3369;49.906;8.598;2022-12-18T07:37:26;-9.50;99.90
6666;DHT22;3369;49.906;8.598;2022-12-18T07:39:52;-9.60;99.90
6666;DHT22;3369;49.906;8.598;2022-12-18T07:42:17;-9.60;99.90
6666;DHT22;3369;49.906;8.598;2022-12-18T07:44:59;-9.60;99.90
6666;DHT22;3369;49.906;8.598;2022-12-18T07:47:25;-9.50;99.90
6666;DHT22;3369;49.906;8.598;2022-12-18T07:49:51;-9.50;99.90
6666;DHT22;3369;49.906;8.598;2022-12-18T07:52:16;-9.40;99.90
6666;DHT22;3369;49.906;8.598;2022-12-18T07:54:42;-9.40;99.90
6666;DHT22;3369;49.906;8.598;2022-12-18T07:57:08;-9.30;99.90
6666;DHT22;3369;49.906;8.598;2022-12-18T07:59:34;-9.30;99.90
6666;DHT22;3369;49.906;8.598;2022-12-18T08:01:59;-9.30;99.90
6666;DHT22;3369;49.906;8.598;2022-12-18T08:04:25;-9.50;99.90
6666;DHT22;3369;49.906;8.598;2022-12-18T08:06:51;-9.60;99.90
6666;DHT22;3369;49.906;8.598;2022-12-18T08:09:17;-9.80;99.90
6666;DHT22;3369;49.906;8.598;2022-12-18T08:11:42;-9.90;99.90
6666;DHT22;3369;49.906;8.598;2022-12-18T08:14:08;-10.00;99.90
6666;DHT22;3369;49.906;8.598;2022-12-18T08:16:35;-10.00;99.90
6666;DHT22;3369;49.906;8.598;2022-12-18T08:19:01;-9.90;99.90
6666;DHT22;3369;49.906;8.598;2022-12-18T08:21:28;-9.90;99.90
6666;DHT22;3369;49.906;8.598;2022-12-18T08:23:56;-9.80;99.90
6666;DHT22;3369;49.906;8.598;2022-12-18T08:26:24;-9.80;99.90
6666;DHT22;3369;49.906;8.598;2022-12-18T08:28:51;-9.80;99.90
6666;DHT22;3369;49.906;8.598;2022-12-18T08:31:17;-9.80;99.90
6666;DHT22;3369;49.906;8.598;2022-12-18T08:33:43;-9.80;99.90
6666;DHT22;3369;49.906;8.598;2022-12-18T08:36:09;-9.70;99.90
6666;DHT22;3369;49.906;8.598;2022-12-18T08:38:35;-9.60;99.90
6666;DHT22;3369;49.906;8.598;2022-12-18T08:41:01;-9.50;99.90
6666;DHT22;3369;49.906;8.598;2022-12-18T08:43:27;-9.40;99.90
6666;DHT22;3369;49.906;8.598;2022-12-18T08:46:12;-9.40;99.90
6666;DHT22;3369;49.906;8.598;2022-12-18T08:48:37;-9.30;99.90
6666;DHT22;3369;49.906;8.598;2022-12-18T08:51:03;-9.30;99.90
6666;DHT22;3369;49.906;8.598;2022-12-18T08:53:29;-9.30;99.90
6666;DHT22;3369;49.906;8.598;2022-12-18T08:55:56;-9.20;99.90
6666;DHT22;3369;49.906;8.598;2022-12-18T08:58:22;-9.20;99.90
6666;DHT22;3369;49.906;8.598;2022-12-18T09:00:47;-9.10;99.90
6666;DHT22;3369;49.906;8.598;2022-12-18T09:03:14;-9.10;99.90
6666;DHT22;3369;49.906;8.598;2022-12-18T09:05:40;-9.20;99.90
6666;DHT22;3369;49.906;8.598;2022-12-18T09:08:06;-9.10;99.90
6666;DHT22;3369;49.906;8.598;2022-12-18T09:10:31;-9.00;99.90
6666;DHT22;3369;49.906;8.598;2022-12-18T09:12:57;-8.90;99.90
6666;DHT22;3369;49.906;8.598;2022-12-18T09:15:23;-8.80;99.90
6666;DHT22;3369;49.906;8.598;2022-12-18T09:17:49;-8.70;99.90
6666;DHT22;3369;49.906;8.598;2022-12-18T09:20:16;-8.60;99.90
6666;DHT22;3369;49.906;8.598;2022-12-18T09:22:42;-8.50;99.90
6666;DHT22;3369;49.906;8.598;2022-12-18T09:25:07;-8.40;99.90
6666;DHT22;3369;49.906;8.598;2022-12-18T09:27:34;-8.30;99.90
6666;DHT22;3369;49.906;8.598;2022-12-18T09:29:59;-8.20;99.90
6666;DHT22;3369;49.906;8.598;2022-12-18T09:32:25;-8.10;99.90
6666;DHT22;3369;49.906;8.598;2022-12-18T09:34:51;-8.00;99.90
6666;DHT22;3369;49.906;8.598;2022-12-18T09:37:16;-7.90;99.90
6666;DHT22;3369;49.906;8.598;2022-12-18T09:39:42;-7.80;99.90
6666;DHT22;3369;49.906;8.598;2022-12-18T09:42:16;-7.80;99.90
6666;DHT22;3369;49.906;8.598;2022-12-18T09:44:49;-7.70;99.90
6666;DHT22;3369;49.906;8.598;2022-12-18T09:49:54;-7.40;99.90
6666;DHT22;3369;49.906;8.598;2022-12-18T09:52:35;-7.30;99.90
6666;DHT22;3369;49.906;8.598;2022-12-18T09:55:10;-7.20;99.90
6666;DHT22;3369;49.906;8.598;2022-12-18T09:57:40;-7.10;99.90
6666;DHT22;3369;49.906;8.598;2022-12-18T10:02:39;-6.70;99.90
6666;DHT22;3369;49.906;8.598;2022-12-18T10:05:14;-6.60;99.90
6666;DHT22;3369;49.906;8.598;2022-12-18T10:10:48;-6.20;99.90
6666;DHT22;3369;49.906;8.598;2022-12-18T10:13:23;-6.00;99.90
6666;DHT22;3369;49.906;8.598;2022-12-18T10:16:11;-5.90;99.90
6666;DHT22;3369;49.906;8.598;2022-12-18T10:21:39;-5.50;99.90
6666;DHT22;3369;49.906;8.598;2022-12-18T10:24:18;-5.30;99.90
6666;DHT22;3369;49.906;8.598;2022-12-18T10:26:47;-5.00;99.90
6666;DHT22;3369;49.906;8.598;2022-12-18T10:29:15;-4.90;99.90
6666;DHT22;3369;49.906;8.598;2022-12-18T10:31:41;-4.80;99.90
6666;DHT22;3369;49.906;8.598;2022-12-18T10:34:11;-4.60;99.90
6666;DHT22;3369;49.906;8.598;2022-12-18T10:36:40;-4.60;99.90
6666;DHT22;3369;49.906;8.598;2022-12-18T10:39:23;-4.50;99.90
6666;DHT22;3369;49.906;8.598;2022-12-18T10:41:50;-4.40;99.90
6666;DHT22;3369;49.906;8.598;2022-12-18T10:44:24;-4.40;99.90
6666;DHT22;3369;49.906;8.598;2022-12-18T10:46:55;-4.50;99.90
6666;DHT22;3369;49.906;8.598;2022-12-18T10:49:32;-4.50;99.90
6666;DHT22;3369;49.906;8.598;2022-12-18T10:52:28;-4.50;99.90
6666;DHT22;3369;49.906;8.598;2022-12-18T10:55:05;-4.50;99.90
6666;DHT22;3369;49.906;8.598;2022-12-18T10:57:39;-4.50;99.90
6666;DHT22;3369;49.906;8.598;2022-12-18T11:02:49;-4.40;99.90
6666;DHT22;3369;49.906;8.598;2022-12-18T11:05:33;-4.40;99.90
6666;DHT22;3369;49.906;8.598;2022-12-18T11:08:00;-4.40;99.90
6666;DHT22;3369;49.906;8.598;2022-12-18T11:10:46;-4.40;99.90
6666;DHT22;3369;49.906;8.598;2022-12-18T11:13:20;-4.40;99.90
6666;DHT22;3369;49.906;8.598;2022-12-18T11:15:47;-4.30;99.90
6666;DHT22;3369;49.906;8.598;2022-12-18T11:18:30;-4.30;99.90
6666;DHT22;3369;49.906;8.598;2022-12-18T11:21:08;-4.20;99.90
6666;DHT22;3369;49.906;8.598;2022-12-18T11:23:35;-4.30;99.90
6666;DHT22;3369;49.906;8.598;2022-12-18T11:26:03;-4.20;99.90
6666;DHT22;3369;49.906;8.598;2022-12-18T11:31:22;-4.10;99.90
6666;DHT22;3369;49.906;8.598;2022-12-18T11:33:56;-4.10;99.90
6666;DHT22;3369;49.906;8.598;2022-12-18T11:36:26;-4.00;99.90
6666;DHT22;3369;49.906;8.598;2022-12-18T11:38:54;-4.00;99.90
6666;DHT22;3369;49.906;8.598;2022-12-18T11:41:30;-3.90;99.90
6666;DHT22;3369;49.906;8.598;2022-12-18T11:44:24;-3.80;99.90
6666;DHT22;3369;49.906;8.598;2022-12-18T11:47:00;-3.80;99.90
6666;DHT22;3369;49.906;8.598;2022-12-18T11:49:35;-3.70;99.90
6666;DHT22;3369;49.906;8.598;2022-12-18T11:52:31;-3.70;99.90
6666;DHT22;3369;49.906;8.598;2022-12-18T11:55:01;-3.70;99.90
6666;DHT22;3369;49.906;8.598;2022-12-18T11:58:19;-3.70;99.90
6666;DHT22;3369;49.906;8.598;2022-12-18T12:00:52;-3.70;99.90
6666;DHT22;3369;49.906;8.598;2022-12-18T12:03:43;-3.70;99.90
6666;DHT22;3369;49.906;8.598;2022-12-18T12:06:21;-3.60;99.90
6666;DHT22;3369;49.906;8.598;2022-12-18T12:09:53;-3.60;99.90
6666;DHT22;3369;49.906;8.598;2022-12-18T12:11:48;-3.60;99.90
6666;DHT22;3369;49.906;8.598;2022-12-18T12:14:38;-3.60;99.90
6666;DHT22;3369;49.906;8.598;2022-12-18T12:20:22;-3.50;99.90
6666;DHT22;3369;49.906;8.598;2022-12-18T12:23:02;-3.50;99.90
6666;DHT22;3369;49.906;8.598;2022-12-18T12:25:43;-3.50;99.90
6666;DHT22;3369;49.906;8.598;2022-12-18T12:28:16;-3.50;99.90
6666;DHT22;3369;49.906;8.598;2022-12-18T12:33:57;-3.40;99.90
6666;DHT22;3369;49.906;8.598;2022-12-18T12:39:07;-3.40;99.90
6666;DHT22;3369;49.906;8.598;2022-12-18T12:41:34;-3.40;99.90
6666;DHT22;3369;49.906;8.598;2022-12-18T12:44:24;-3.50;99.90
6666;DHT22;3369;49.906;8.598;2022-12-18T12:46:52;-3.50;99.90
6666;DHT22;3369;49.906;8.598;2022-12-18T12:49:26;-3.50;99.90
6666;DHT22;3369;49.906;8.598;2022-12-18T12:52:00;-3.50;99.90
6666;DHT22;3369;49.906;8.598;2022-12-18T12:54:32;-3.50;99.90
6666;DHT22;3369;49.906;8.598;2022-12-18T13:00:14;-3.40;99.90
6666;DHT22;3369;49.906;8.598;2022-12-18T13:08:10;-3.40;99.90
6666;DHT22;3369;49.906;8.598;2022-12-18T13:10:41;-3.40;99.90
6666;DHT22;3369;49.906;8.598;2022-12-18T13:13:11;-3.40;99.90
6666;DHT22;3369;49.906;8.598;2022-12-18T13:20:38;-3.40;99.90
6666;DHT22;3369;49.906;8.598;2022-12-18T13:25:53;-3.30;99.90
6666;DHT22;3369;49.906;8.598;2022-12-18T13:30:50;-3.40;99.90
6666;DHT22;3369;49.906;8.598;2022-12-18T13:48:23;-3.40;99.90
6666;DHT22;3369;49.906;8.598;2022-12-18T13:51:04;-3.40;99.90
6666;DHT22;3369;49.906;8.598;2022-12-18T13:53:42;-3.40;99.90
6666;DHT22;3369;49.906;8.598;2022-12-18T13:56:08;-3.40;99.90
6666;DHT22;3369;49.906;8.598;2022-12-18T13:58:34;-3.40;99.90
6666;DHT22;3369;49.906;8.598;2022-12-18T14:01:00;-3.40;99.90
6666;DHT22;3369;49.906;8.598;2022-12-18T14:03:29;-3.40;99.90
6666;DHT22;3369;49.906;8.598;2022-12-18T14:06:07;-3.40;99.90
6666;DHT22;3369;49.906;8.598;2022-12-18T14:08:39;-3.40;99.90
6666;DHT22;3369;49.906;8.598;2022-12-18T14:11:06;-3.40;99.90
6666;DHT22;3369;49.906;8.598;2022-12-18T14:13:36;-3.40;99.90
6666;DHT22;3369;49.906;8.598;2022-12-18T14:16:04;-3.40;99.90
6666;DHT22;3369;49.906;8.598;2022-12-18T14:21:30;-3.40;99.90
6666;DHT22;3369;49.906;8.598;2022-12-18T14:24:20;-3.40;99.90
6666;DHT22;3369;49.906;8.598;2022-12-18T14:26:47;-3.40;99.90
6666;DHT22;3369;49.906;8.598;2022-12-18T14:29:24;-3.40;99.90
6666;DHT22;3369;49.906;8.598;2022-12-18T14:32:16;-3.40;99.90
6666;DHT22;3369;49.906;8.598;2022-12-18T14:55:22;-3.50;99.90
6666;DHT22;3369;49.906;8.598;2022-12-18T14:57:54;-3.50;99.90
6666;DHT22;3369;49.906;8.598;2022-12-18T15:00:22;-3.60;99.90
6666;DHT22;3369;49.906;8.598;2022-12-18T15:02:56;-3.50;99.90
6666;DHT22;3369;49.906;8.598;2022-12-18T15:05:28;-3.50;99.90
6666;DHT22;3369;49.906;8.598;2022-12-18T15:07:56;-3.60;99.90
6666;DHT22;3369;49.906;8.598;2022-12-18T15:10:24;-3.50;99.90
6666;DHT22;3369;49.906;8.598;2022-12-18T15:13:20;-3.60;99.90
6666;DHT22;3369;49.906;8.598;2022-12-18T15:15:48;-3.50;99.90
6666;DHT22;3369;49.906;8.598;2022-12-18T15:18:19;-3.50;99.90
6666;DHT22;3369;49.906;8.598;2022-12-18T15:20:54;-3.50;99.90
6666;DHT22;3369;49.906;8.598;2022-12-18T15:23:38;-3.50;99.90
6666;DHT22;3369;49.906;8.598;2022-12-18T15:26:12;-3.50;99.90
6666;DHT22;3369;49.906;8.598;2022-12-18T15:28:47;-3.50;99.90
6666;DHT22;3369;49.906;8.598;2022-12-18T15:33:41;-3.60;99.90
6666;DHT22;3369;49.906;8.598;2022-12-18T15:36:12;-3.50;99.90
6666;DHT22;3369;49.906;8.598;2022-12-18T15:38:38;-3.50;99.90
6666;DHT22;3369;49.906;8.598;2022-12-18T15:41:04;-3.50;99.90
6666;DHT22;3369;49.906;8.598;2022-12-18T15:43:32;-3.50;99.90
6666;DHT22;3369;49.906;8.598;2022-12-18T15:46:10;-3.50;99.90
6666;DHT22;3369;49.906;8.598;2022-12-18T15:48:40;-3.50;99.90
6666;DHT22;3369;49.906;8.598;2022-12-18T15:51:21;-3.60;99.90
6666;DHT22;3369;49.906;8.598;2022-12-18T15:53:48;-3.50;99.90
6666;DHT22;3369;49.906;8.598;2022-12-18T15:56:15;-3.60;99.90
6666;DHT22;3369;49.906;8.598;2022-12-18T15:59:01;-3.60;99.90
6666;DHT22;3369;49.906;8.598;2022-12-18T16:01:29;-3.60;99.90
6666;DHT22;3369;49.906;8.598;2022-12-18T16:03:55;-3.60;99.90
6666;DHT22;3369;49.906;8.598;2022-12-18T16:06:24;-3.60;99.90
6666;DHT22;3369;49.906;8.598;2022-12-18T16:08:50;-3.70;99.90
6666;DHT22;3369;49.906;8.598;2022-12-18T16:11:36;-3.70;99.90
6666;DHT22;3369;49.906;8.598;2022-12-18T16:14:20;-3.70;99.90
6666;DHT22;3369;49.906;8.598;2022-12-18T16:16:51;-3.70;99.90
6666;DHT22;3369;49.906;8.598;2022-12-18T16:19:18;-3.70;99.90
6666;DHT22;3369;49.906;8.598;2022-12-18T16:21:45;-3.80;99.90
6666;DHT22;3369;49.906;8.598;2022-12-18T16:24:22;-3.80;99.90
6666;DHT22;3369;49.906;8.598;2022-12-18T16:26:49;-3.80;99.90
6666;DHT22;3369;49.906;8.598;2022-12-18T16:29:17;-3.80;99.90
6666;DHT22;3369;49.906;8.598;2022-12-18T16:31:43;-3.80;99.90
6666;DHT22;3369;49.906;8.598;2022-12-18T16:34:29;-3.80;99.90
6666;DHT22;3369;49.906;8.598;2022-12-18T16:37:00;-3.80;99.90
6666;DHT22;3369;49.906;8.598;2022-12-18T16:39:27;-3.80;99.90
6666;DHT22;3369;49.906;8.598;2022-12-18T16:41:52;-3.80;99.90
6666;DHT22;3369;49.906;8.598;2022-12-18T16:44:18;-3.80;99.90
6666;DHT22;3369;49.906;8.598;2022-12-18T16:46:44;-3.80;99.90
6666;DHT22;3369;49.906;8.598;2022-12-18T16:49:17;-3.80;99.90
6666;DHT22;3369;49.906;8.598;2022-12-18T16:51:45;-3.80;99.90
6666;DHT22;3369;49.906;8.598;2022-12-18T16:54:11;-3.80;99.90
6666;DHT22;3369;49.906;8.598;2022-12-18T16:56:37;-3.80;99.90
6666;DHT22;3369;49.906;8.598;2022-12-18T16:59:03;-3.70;99.90
6666;DHT22;3369;49.906;8.598;2022-12-18T17:01:31;-3.70;99.90
6666;DHT22;3369;49.906;8.598;2022-12-18T17:04:00;-3.70;99.90
6666;DHT22;3369;49.906;8.598;2022-12-18T17:06:28;-3.70;99.90
6666;DHT22;3369;49.906;8.598;2022-12-18T17:09:03;-3.70;99.90
6666;DHT22;3369;49.906;8.598;2022-12-18T17:11:31;-3.70;99.90
6666;DHT22;3369;49.906;8.598;2022-12-18T17:13:58;-3.60;99.90
6666;DHT22;3369;49.906;8.598;2022-12-18T17:16:24;-3.60;99.90
6666;DHT22;3369;49.906;8.598;2022-12-18T17:18:52;-3.60;99.90
6666;DHT22;3369;49.906;8.598;2022-12-18T17:21:18;-3.60;99.90
6666;DHT22;3369;49.906;8.598;2022-12-18T17:23:44;-3.60;99.90
6666;DHT22;3369;49.906;8.598;2022-12-18T17:26:10;-3.60;99.90
6666;DHT22;3369;49.906;8.598;2022-12-18T17:28:38;-3.60;99.90
6666;DHT22;3369;49.906;8.598;2022-12-18T17:31:19;-3.60;99.90
6666;DHT22;3369;49.906;8.598;2022-12-18T17:33:45;-3.60;99.90
6666;DHT22;3369;49.906;8.598;2022-12-18T17:36:11;-3.60;99.90
6666;DHT22;3369;49.906;8.598;2022-12-18T17:38:37;-3.70;99.90
6666;DHT22;3369;49.906;8.598;2022-12-18T17:41:04;-3.70;99.90
6666;DHT22;3369;49.906;8.598;2022-12-18T17:43:30;-3.80;99.90
6666;DHT22;3369;49.906;8.598;2022-12-18T17:46:04;-3.80;99.90
6666;DHT22;3369;49.906;8.598;2022-12-18T17:48:31;-3.80;99.90
6666;DHT22;3369;49.906;8.598;2022-12-18T17:51:05;-3.80;99.90
6666;DHT22;3369;49.906;8.598;2022-12-18T17:53:31;-3.80;99.90
6666;DHT22;3369;49.906;8.598;2022-12-18T17:55:58;-3.80;99.90
6666;DHT22;3369;49.906;8.598;2022-12-18T17:58:30;-3.80;99.90
6666;DHT22;3369;49.906;8.598;2022-12-18T18:00:59;-3.80;99.90
6666;DHT22;3369;49.906;8.598;2022-12-18T18:03:25;-3.80;99.90
6666;DHT22;3369;49.906;8.598;2022-12-18T18:05:57;-3.80;99.90
6666;DHT22;3369;49.906;8.598;2022-12-18T18:08:24;-3.80;99.90
6666;DHT22;3369;49.906;8.598;2022-12-18T18:10:50;-3.90;99.90
6666;DHT22;3369;49.906;8.598;2022-12-18T18:13:25;-3.90;99.90
6666;DHT22;3369;49.906;8.598;2022-12-18T18:16:10;-3.80;99.90
6666;DHT22;3369;49.906;8.598;2022-12-18T18:18:37;-3.90;99.90
6666;DHT22;3369;49.906;8.598;2022-12-18T18:21:04;-3.90;99.90
6666;DHT22;3369;49.906;8.598;2022-12-18T18:23:31;-3.80;99.90
6666;DHT22;3369;49.906;8.598;2022-12-18T18:26:06;-3.90;99.90
6666;DHT22;3369;49.906;8.598;2022-12-18T18:28:32;-3.80;99.90
6666;DHT22;3369;49.906;8.598;2022-12-18T18:31:03;-3.80;99.90
6666;DHT22;3369;49.906;8.598;2022-12-18T18:33:29;-3.80;99.90